sensor_id;sensor_type;location;lat;lon;timestamp;P1;durP1;ratioP1;P2;durP2;ratioP2
21215;SDS011;10765;50.954;5.322;2022-07-23T00:00:13;13.23;;;11.83;;
21215;SDS011;10765;50.954;5.322;2022-07-23T00:02:40;15.53;;;12.23;;
21215;SDS011;10765;50.954;5.322;2022-07-23T00:05:08;13.67;;;11.77;;
21215;SDS011;10765;50.954;5.322;2022-07-23T00:07:36;14.07;;;11.10;;
21215;SDS011;10765;50.954;5.322;2022-07-23T00:10:03;12.40;;;11.10;;
21215;SDS011;10765;50.954;5.322;2022-07-23T00:12:30;12.73;;;11.33;;
21215;SDS011;10765;50.954;5.322;2022-07-23T00:14:57;11.23;;;10.13;;
21215;SDS011;10765;50.954;5.322;2022-07-23T00:17:25;14.23;;;11.00;;
21215;SDS011;10765;50.954;5.322;2022-07-23T00:19:52;13.27;;;10.70;;
21215;SDS011;10765;50.954;5.322;2022-07-23T00:22:19;11.60;;;10.33;;
21215;SDS011;10765;50.954;5.322;2022-07-23T00:24:46;10.43;;;9.47;;
21215;SDS011;10765;50.954;5.322;2022-07-23T00:27:13;11.03;;;9.93;;
21215;SDS011;10765;50.954;5.322;2022-07-23T00:29:40;10.67;;;9.63;;
21215;SDS011;10765;50.954;5.322;2022-07-23T00:32:07;10.60;;;9.60;;
21215;SDS011;10765;50.954;5.322;2022-07-23T00:34:35;9.77;;;8.87;;
21215;SDS011;10765;50.954;5.322;2022-07-23T00:37:02;11.00;;;9.93;;
21215;SDS011;10765;50.954;5.322;2022-07-23T00:39:29;9.23;;;8.43;;
21215;SDS011;10765;50.954;5.322;2022-07-23T00:41:56;9.97;;;9.07;;
21215;SDS011;10765;50.954;5.322;2022-07-23T00:44:23;10.67;;;9.60;;
21215;SDS011;10765;50.954;5.322;2022-07-23T00:46:51;12.07;;;10.60;;
21215;SDS011;10765;50.954;5.322;2022-07-23T00:49:19;11.70;;;10.07;;
21215;SDS011;10765;50.954;5.322;2022-07-23T00:51:48;11.73;;;9.77;;
21215;SDS011;10765;50.954;5.322;2022-07-23T00:54:15;10.93;;;9.90;;
21215;SDS011;10765;50.954;5.322;2022-07-23T00:56:43;11.40;;;10.40;;
21215;SDS011;10765;50.954;5.322;2022-07-23T00:59:11;10.10;;;9.17;;
21215;SDS011;10765;50.954;5.322;2022-07-23T01:01:38;13.87;;;10.23;;
21215;SDS011;10765;50.954;5.322;2022-07-23T01:04:05;11.70;;;8.80;;
21215;SDS011;10765;50.954;5.322;2022-07-23T01:06:33;10.90;;;9.90;;
21215;SDS011;10765;50.954;5.322;2022-07-23T01:09:03;10.27;;;9.27;;
21215;SDS011;10765;50.954;5.322;2022-07-23T01:11:31;4.93;;;4.40;;
21215;SDS011;10765;50.954;5.322;2022-07-23T01:14:07;4.77;;;4.37;;
21215;SDS011;10765;50.954;5.322;2022-07-23T01:16:34;7.37;;;6.67;;
21215;SDS011;10765;50.954;5.322;2022-07-23T01:19:01;11.23;;;10.03;;
21215;SDS011;10765;50.954;5.322;2022-07-23T01:21:31;12.37;;;10.90;;
21215;SDS011;10765;50.954;5.322;2022-07-23T01:24:02;11.50;;;10.40;;
21215;SDS011;10765;50.954;5.322;2022-07-23T01:26:29;13.03;;;10.70;;
21215;SDS011;10765;50.954;5.322;2022-07-23T01:28:56;12.13;;;10.90;;
21215;SDS011;10765;50.954;5.322;2022-07-23T01:31:23;11.97;;;10.40;;
21215;SDS011;10765;50.954;5.322;2022-07-23T01:33:50;12.27;;;11.07;;
21215;SDS011;10765;50.954;5.322;2022-07-23T01:36:17;12.23;;;11.03;;
21215;SDS011;10765;50.954;5.322;2022-07-23T01:38:43;10.40;;;9.40;;
21215;SDS011;10765;50.954;5.322;2022-07-23T01:41:11;10.37;;;9.43;;
21215;SDS011;10765;50.954;5.322;2022-07-23T01:43:38;8.03;;;7.03;;
21215;SDS011;10765;50.954;5.322;2022-07-23T01:46:05;7.67;;;6.97;;
21215;SDS011;10765;50.954;5.322;2022-07-23T01:48:32;7.00;;;6.40;;
21215;SDS011;10765;50.954;5.322;2022-07-23T01:50:59;6.87;;;6.23;;
21215;SDS011;10765;50.954;5.322;2022-07-23T01:53:26;9.10;;;8.20;;
21215;SDS011;10765;50.954;5.322;2022-07-23T01:55:56;8.90;;;8.00;;
21215;SDS011;10765;50.954;5.322;2022-07-23T01:58:24;9.20;;;8.03;;
21215;SDS011;10765;50.954;5.322;2022-07-23T02:00:51;9.40;;;8.50;;
21215;SDS011;10765;50.954;5.322;2022-07-23T02:03:18;6.67;;;6.07;;
21215;SDS011;10765;50.954;5.322;2022-07-23T02:05:45;5.80;;;5.30;;
21215;SDS011;10765;50.954;5.322;2022-07-23T02:08:12;3.70;;;3.40;;
21215;SDS011;10765;50.954;5.322;2022-07-23T02:10:39;4.53;;;3.40;;
21215;SDS011;10765;50.954;5.322;2022-07-23T02:13:06;5.57;;;3.70;;
21215;SDS011;10765;50.954;5.322;2022-07-23T02:15:35;2.00;;;1.90;;
21215;SDS011;10765;50.954;5.322;2022-07-23T02:18:02;2.00;;;1.80;;
21215;SDS011;10765;50.954;5.322;2022-07-23T02:20:28;3.43;;;3.13;;
21215;SDS011;10765;50.954;5.322;2022-07-23T02:22:55;3.70;;;3.23;;
21215;SDS011;10765;50.954;5.322;2022-07-23T02:25:22;9.03;;;7.43;;
21215;SDS011;10765;50.954;5.322;2022-07-23T02:27:49;8.40;;;7.50;;
21215;SDS011;10765;50.954;5.322;2022-07-23T02:30:16;5.37;;;4.90;;
21215;SDS011;10765;50.954;5.322;2022-07-23T02:32:44;3.97;;;3.50;;
21215;SDS011;10765;50.954;5.322;2022-07-23T02:35:11;2.97;;;2.50;;
21215;SDS011;10765;50.954;5.322;2022-07-23T02:37:38;3.60;;;3.30;;
21215;SDS011;10765;50.954;5.322;2022-07-23T02:40:05;9.47;;;6.50;;
21215;SDS011;10765;50.954;5.322;2022-07-23T02:42:33;2.33;;;2.13;;
21215;SDS011;10765;50.954;5.322;2022-07-23T02:44:59;2.30;;;2.20;;
21215;SDS011;10765;50.954;5.322;2022-07-23T02:47:26;6.43;;;4.80;;
21215;SDS011;10765;50.954;5.322;2022-07-23T02:49:54;10.00;;;7.50;;
21215;SDS011;10765;50.954;5.322;2022-07-23T02:52:21;8.27;;;7.47;;
21215;SDS011;10765;50.954;5.322;2022-07-23T02:54:48;10.67;;;9.47;;
21215;SDS011;10765;50.954;5.322;2022-07-23T02:57:15;8.60;;;7.73;;
21215;SDS011;10765;50.954;5.322;2022-07-23T02:59:42;8.20;;;7.37;;
21215;SDS011;10765;50.954;5.322;2022-07-23T03:02:09;8.07;;;7.37;;
21215;SDS011;10765;50.954;5.322;2022-07-23T03:04:35;10.00;;;8.77;;
21215;SDS011;10765;50.954;5.322;2022-07-23T03:07:04;10.63;;;9.63;;
21215;SDS011;10765;50.954;5.322;2022-07-23T03:09:30;10.17;;;9.17;;
21215;SDS011;10765;50.954;5.322;2022-07-23T03:11:57;11.03;;;9.93;;
21215;SDS011;10765;50.954;5.322;2022-07-23T03:14:24;7.43;;;6.73;;
21215;SDS011;10765;50.954;5.322;2022-07-23T03:16:52;6.63;;;6.13;;
21215;SDS011;10765;50.954;5.322;2022-07-23T03:19:19;10.53;;;9.53;;
21215;SDS011;10765;50.954;5.322;2022-07-23T03:21:46;11.27;;;10.10;;
21215;SDS011;10765;50.954;5.322;2022-07-23T03:24:14;12.10;;;10.83;;
21215;SDS011;10765;50.954;5.322;2022-07-23T03:26:42;5.33;;;4.80;;
21215;SDS011;10765;50.954;5.322;2022-07-23T03:29:09;6.23;;;4.80;;
21215;SDS011;10765;50.954;5.322;2022-07-23T03:31:37;6.67;;;5.53;;
21215;SDS011;10765;50.954;5.322;2022-07-23T03:34:03;6.90;;;6.30;;
21215;SDS011;10765;50.954;5.322;2022-07-23T03:36:30;11.77;;;9.10;;
21215;SDS011;10765;50.954;5.322;2022-07-23T03:38:57;11.77;;;10.67;;
21215;SDS011;10765;50.954;5.322;2022-07-23T03:41:25;9.53;;;8.53;;
21215;SDS011;10765;50.954;5.322;2022-07-23T03:43:52;8.43;;;7.73;;
21215;SDS011;10765;50.954;5.322;2022-07-23T03:46:19;12.27;;;11.03;;
21215;SDS011;10765;50.954;5.322;2022-07-23T03:48:46;12.13;;;10.87;;
21215;SDS011;10765;50.954;5.322;2022-07-23T03:51:13;17.47;;;12.80;;
21215;SDS011;10765;50.954;5.322;2022-07-23T03:53:40;14.80;;;12.20;;
21215;SDS011;10765;50.954;5.322;2022-07-23T03:56:07;15.33;;;12.57;;
21215;SDS011;10765;50.954;5.322;2022-07-23T03:58:35;7.67;;;6.63;;
21215;SDS011;10765;50.954;5.322;2022-07-23T04:01:02;5.50;;;4.90;;
21215;SDS011;10765;50.954;5.322;2022-07-23T04:03:28;5.73;;;5.00;;
21215;SDS011;10765;50.954;5.322;2022-07-23T04:05:55;4.40;;;4.00;;
21215;SDS011;10765;50.954;5.322;2022-07-23T04:08:22;7.67;;;6.90;;
21215;SDS011;10765;50.954;5.322;2022-07-23T04:10:50;12.13;;;10.93;;
21215;SDS011;10765;50.954;5.322;2022-07-23T04:13:17;16.03;;;11.20;;
21215;SDS011;10765;50.954;5.322;2022-07-23T04:15:45;5.17;;;4.37;;
21215;SDS011;10765;50.954;5.322;2022-07-23T04:18:12;6.27;;;5.07;;
21215;SDS011;10765;50.954;5.322;2022-07-23T04:20:42;6.33;;;5.43;;
21215;SDS011;10765;50.954;5.322;2022-07-23T04:23:09;4.83;;;3.87;;
21215;SDS011;10765;50.954;5.322;2022-07-23T04:25:36;5.03;;;3.80;;
21215;SDS011;10765;50.954;5.322;2022-07-23T04:28:03;7.80;;;7.00;;
21215;SDS011;10765;50.954;5.322;2022-07-23T04:30:30;7.03;;;5.87;;
21215;SDS011;10765;50.954;5.322;2022-07-23T04:32:58;7.53;;;6.83;;
21215;SDS011;10765;50.954;5.322;2022-07-23T04:35:25;8.50;;;7.20;;
21215;SDS011;10765;50.954;5.322;2022-07-23T04:37:52;7.70;;;6.90;;
21215;SDS011;10765;50.954;5.322;2022-07-23T04:40:19;8.53;;;7.80;;
21215;SDS011;10765;50.954;5.322;2022-07-23T04:42:46;12.37;;;8.83;;
21215;SDS011;10765;50.954;5.322;2022-07-23T04:45:13;11.33;;;9.60;;
21215;SDS011;10765;50.954;5.322;2022-07-23T04:47:39;9.53;;;8.63;;
21215;SDS011;10765;50.954;5.322;2022-07-23T04:50:08;9.83;;;8.83;;
21215;SDS011;10765;50.954;5.322;2022-07-23T04:52:35;9.00;;;8.30;;
21215;SDS011;10765;50.954;5.322;2022-07-23T04:55:02;9.07;;;7.77;;
21215;SDS011;10765;50.954;5.322;2022-07-23T04:57:30;8.53;;;7.60;;
21215;SDS011;10765;50.954;5.322;2022-07-23T04:59:57;10.03;;;8.40;;
21215;SDS011;10765;50.954;5.322;2022-07-23T05:02:24;8.67;;;7.37;;
21215;SDS011;10765;50.954;5.322;2022-07-23T05:04:50;7.77;;;6.97;;
21215;SDS011;10765;50.954;5.322;2022-07-23T05:07:19;7.90;;;7.10;;
21215;SDS011;10765;50.954;5.322;2022-07-23T05:09:45;8.47;;;7.37;;
21215;SDS011;10765;50.954;5.322;2022-07-23T05:12:12;7.43;;;6.73;;
21215;SDS011;10765;50.954;5.322;2022-07-23T05:14:39;7.43;;;6.70;;
21215;SDS011;10765;50.954;5.322;2022-07-23T05:17:07;7.87;;;6.87;;
21215;SDS011;10765;50.954;5.322;2022-07-23T05:19:34;7.47;;;6.70;;
21215;SDS011;10765;50.954;5.322;2022-07-23T05:22:01;8.17;;;6.83;;
21215;SDS011;10765;50.954;5.322;2022-07-23T05:24:29;8.03;;;7.33;;
21215;SDS011;10765;50.954;5.322;2022-07-23T05:26:56;8.03;;;7.33;;
21215;SDS011;10765;50.954;5.322;2022-07-23T05:29:23;8.00;;;7.37;;
21215;SDS011;10765;50.954;5.322;2022-07-23T05:31:50;7.73;;;7.13;;
21215;SDS011;10765;50.954;5.322;2022-07-23T05:34:17;8.13;;;7.33;;
21215;SDS011;10765;50.954;5.322;2022-07-23T05:36:44;7.37;;;6.77;;
21215;SDS011;10765;50.954;5.322;2022-07-23T05:39:11;6.97;;;6.37;;
21215;SDS011;10765;50.954;5.322;2022-07-23T05:41:39;7.70;;;6.70;;
21215;SDS011;10765;50.954;5.322;2022-07-23T05:44:06;7.37;;;6.67;;
21215;SDS011;10765;50.954;5.322;2022-07-23T05:46:32;8.10;;;7.20;;
21215;SDS011;10765;50.954;5.322;2022-07-23T05:48:59;8.30;;;7.07;;
21215;SDS011;10765;50.954;5.322;2022-07-23T05:51:26;8.00;;;7.07;;
21215;SDS011;10765;50.954;5.322;2022-07-23T05:53:53;7.57;;;6.80;;
21215;SDS011;10765;50.954;5.322;2022-07-23T05:56:20;8.90;;;7.03;;
21215;SDS011;10765;50.954;5.322;2022-07-23T05:58:48;8.70;;;7.80;;
21215;SDS011;10765;50.954;5.322;2022-07-23T06:01:15;6.83;;;6.23;;
21215;SDS011;10765;50.954;5.322;2022-07-23T06:03:42;7.00;;;6.50;;
21215;SDS011;10765;50.954;5.322;2022-07-23T06:06:09;8.43;;;6.53;;
21215;SDS011;10765;50.954;5.322;2022-07-23T06:08:36;7.07;;;6.43;;
21215;SDS011;10765;50.954;5.322;2022-07-23T06:11:03;7.17;;;6.37;;
21215;SDS011;10765;50.954;5.322;2022-07-23T06:13:29;7.90;;;7.10;;
21215;SDS011;10765;50.954;5.322;2022-07-23T06:15:58;6.73;;;6.13;;
21215;SDS011;10765;50.954;5.322;2022-07-23T06:18:25;7.47;;;6.77;;
21215;SDS011;10765;50.954;5.322;2022-07-23T06:20:52;8.00;;;7.27;;
21215;SDS011;10765;50.954;5.322;2022-07-23T06:23:19;7.50;;;6.77;;
21215;SDS011;10765;50.954;5.322;2022-07-23T06:25:46;7.40;;;6.80;;
21215;SDS011;10765;50.954;5.322;2022-07-23T06:28:13;7.67;;;6.90;;
21215;SDS011;10765;50.954;5.322;2022-07-23T06:30:40;8.27;;;7.47;;
21215;SDS011;10765;50.954;5.322;2022-07-23T06:33:08;8.40;;;7.50;;
21215;SDS011;10765;50.954;5.322;2022-07-23T06:35:36;7.20;;;6.60;;
21215;SDS011;10765;50.954;5.322;2022-07-23T06:38:03;7.30;;;6.60;;
21215;SDS011;10765;50.954;5.322;2022-07-23T06:40:30;9.40;;;7.27;;
21215;SDS011;10765;50.954;5.322;2022-07-23T06:42:57;7.77;;;7.17;;
21215;SDS011;10765;50.954;5.322;2022-07-23T06:45:24;7.07;;;6.47;;
21215;SDS011;10765;50.954;5.322;2022-07-23T06:47:51;7.83;;;7.13;;
21215;SDS011;10765;50.954;5.322;2022-07-23T06:50:19;8.40;;;7.60;;
21215;SDS011;10765;50.954;5.322;2022-07-23T06:52:46;8.60;;;7.70;;
21215;SDS011;10765;50.954;5.322;2022-07-23T06:55:13;8.70;;;7.80;;
21215;SDS011;10765;50.954;5.322;2022-07-23T06:57:40;8.20;;;7.50;;
21215;SDS011;10765;50.954;5.322;2022-07-23T07:00:07;9.17;;;8.37;;
21215;SDS011;10765;50.954;5.322;2022-07-23T07:02:35;8.90;;;8.13;;
21215;SDS011;10765;50.954;5.322;2022-07-23T07:05:02;8.60;;;7.80;;
21215;SDS011;10765;50.954;5.322;2022-07-23T07:07:31;8.00;;;7.20;;
21215;SDS011;10765;50.954;5.322;2022-07-23T07:09:58;8.13;;;7.40;;
21215;SDS011;10765;50.954;5.322;2022-07-23T07:12:25;8.17;;;7.47;;
21215;SDS011;10765;50.954;5.322;2022-07-23T07:14:51;8.27;;;7.53;;
21215;SDS011;10765;50.954;5.322;2022-07-23T07:17:18;9.10;;;8.30;;
21215;SDS011;10765;50.954;5.322;2022-07-23T07:19:45;8.30;;;7.60;;
21215;SDS011;10765;50.954;5.322;2022-07-23T07:22:12;9.00;;;8.20;;
21215;SDS011;10765;50.954;5.322;2022-07-23T07:24:40;9.30;;;8.40;;
21215;SDS011;10765;50.954;5.322;2022-07-23T07:27:07;8.70;;;7.87;;
21215;SDS011;10765;50.954;5.322;2022-07-23T07:29:34;9.30;;;8.50;;
21215;SDS011;10765;50.954;5.322;2022-07-23T07:32:01;9.23;;;8.20;;
21215;SDS011;10765;50.954;5.322;2022-07-23T07:34:28;8.87;;;7.97;;
21215;SDS011;10765;50.954;5.322;2022-07-23T07:36:55;8.57;;;7.87;;
21215;SDS011;10765;50.954;5.322;2022-07-23T07:39:22;8.17;;;7.57;;
21215;SDS011;10765;50.954;5.322;2022-07-23T07:41:50;9.00;;;8.20;;
21215;SDS011;10765;50.954;5.322;2022-07-23T07:44:17;8.32;;;7.55;;
21215;SDS011;10765;50.954;5.322;2022-07-23T07:46:43;9.20;;;8.07;;
21215;SDS011;10765;50.954;5.322;2022-07-23T07:49:10;8.50;;;7.72;;
21215;SDS011;10765;50.954;5.322;2022-07-23T07:51:37;8.80;;;8.00;;
21215;SDS011;10765;50.954;5.322;2022-07-23T07:54:04;8.23;;;7.43;;
21215;SDS011;10765;50.954;5.322;2022-07-23T07:56:31;8.57;;;7.40;;
21215;SDS011;10765;50.954;5.322;2022-07-23T07:58:59;8.52;;;7.72;;
21215;SDS011;10765;50.954;5.322;2022-07-23T08:01:26;10.02;;;7.60;;
21215;SDS011;10765;50.954;5.322;2022-07-23T08:03:53;7.90;;;7.10;;
21215;SDS011;10765;50.954;5.322;2022-07-23T08:06:20;8.27;;;7.45;;
21215;SDS011;10765;50.954;5.322;2022-07-23T08:08:47;7.75;;;7.05;;
21215;SDS011;10765;50.954;5.322;2022-07-23T08:11:14;8.10;;;7.13;;
21215;SDS011;10765;50.954;5.322;2022-07-23T08:13:41;7.60;;;6.65;;
21215;SDS011;10765;50.954;5.322;2022-07-23T08:16:10;8.10;;;7.30;;
21215;SDS011;10765;50.954;5.322;2022-07-23T08:18:37;7.53;;;6.78;;
21215;SDS011;10765;50.954;5.322;2022-07-23T08:21:04;7.82;;;7.03;;
21215;SDS011;10765;50.954;5.322;2022-07-23T08:23:31;8.05;;;7.18;;
21215;SDS011;10765;50.954;5.322;2022-07-23T08:25:59;8.00;;;7.30;;
21215;SDS011;10765;50.954;5.322;2022-07-23T08:28:27;8.50;;;7.63;;
21215;SDS011;10765;50.954;5.322;2022-07-23T08:30:54;8.77;;;7.97;;
21215;SDS011;10765;50.954;5.322;2022-07-23T08:33:22;8.10;;;7.40;;
21215;SDS011;10765;50.954;5.322;2022-07-23T08:35:49;7.47;;;6.77;;
21215;SDS011;10765;50.954;5.322;2022-07-23T08:38:18;8.40;;;7.43;;
21215;SDS011;10765;50.954;5.322;2022-07-23T08:40:47;8.93;;;7.05;;
21215;SDS011;10765;50.954;5.322;2022-07-23T08:43:17;10.82;;;7.88;;
21215;SDS011;10765;50.954;5.322;2022-07-23T08:45:46;8.13;;;7.32;;
21215;SDS011;10765;50.954;5.322;2022-07-23T08:48:16;11.45;;;8.05;;
21215;SDS011;10765;50.954;5.322;2022-07-23T08:50:46;7.55;;;6.88;;
21215;SDS011;10765;50.954;5.322;2022-07-23T08:53:15;8.52;;;7.68;;
21215;SDS011;10765;50.954;5.322;2022-07-23T08:55:43;8.25;;;7.40;;
21215;SDS011;10765;50.954;5.322;2022-07-23T08:58:11;7.07;;;6.50;;
21215;SDS011;10765;50.954;5.322;2022-07-23T09:00:38;10.35;;;9.45;;
21215;SDS011;10765;50.954;5.322;2022-07-23T09:03:05;7.95;;;7.15;;
21215;SDS011;10765;50.954;5.322;2022-07-23T09:05:32;7.43;;;6.72;;
21215;SDS011;10765;50.954;5.322;2022-07-23T09:08:08;7.70;;;7.00;;
21215;SDS011;10765;50.954;5.322;2022-07-23T09:10:43;8.32;;;7.47;;
21215;SDS011;10765;50.954;5.322;2022-07-23T09:13:22;7.07;;;6.43;;
21215;SDS011;10765;50.954;5.322;2022-07-23T09:15:55;7.88;;;6.95;;
21215;SDS011;10765;50.954;5.322;2022-07-23T09:18:33;7.68;;;6.97;;
21215;SDS011;10765;50.954;5.322;2022-07-23T09:21:13;6.75;;;6.10;;
21215;SDS011;10765;50.954;5.322;2022-07-23T09:23:44;6.50;;;5.90;;
21215;SDS011;10765;50.954;5.322;2022-07-23T09:26:23;5.70;;;5.20;;
21215;SDS011;10765;50.954;5.322;2022-07-23T09:28:59;5.43;;;4.97;;
21215;SDS011;10765;50.954;5.322;2022-07-23T09:31:33;6.70;;;6.10;;
21215;SDS011;10765;50.954;5.322;2022-07-23T09:34:08;6.20;;;5.70;;
21215;SDS011;10765;50.954;5.322;2022-07-23T09:36:37;6.82;;;6.32;;
21215;SDS011;10765;50.954;5.322;2022-07-23T09:39:06;6.65;;;6.07;;
21215;SDS011;10765;50.954;5.322;2022-07-23T09:41:37;6.03;;;5.50;;
21215;SDS011;10765;50.954;5.322;2022-07-23T09:44:09;5.97;;;5.38;;
21215;SDS011;10765;50.954;5.322;2022-07-23T09:46:38;5.93;;;5.38;;
21215;SDS011;10765;50.954;5.322;2022-07-23T09:49:10;5.75;;;5.25;;
21215;SDS011;10765;50.954;5.322;2022-07-23T09:51:43;6.22;;;5.00;;
21215;SDS011;10765;50.954;5.322;2022-07-23T09:54:21;4.85;;;4.45;;
21215;SDS011;10765;50.954;5.322;2022-07-23T09:56:51;5.53;;;5.03;;
21215;SDS011;10765;50.954;5.322;2022-07-23T09:59:20;5.72;;;5.20;;
21215;SDS011;10765;50.954;5.322;2022-07-23T10:01:50;5.65;;;4.80;;
21215;SDS011;10765;50.954;5.322;2022-07-23T10:04:18;4.70;;;4.22;;
21215;SDS011;10765;50.954;5.322;2022-07-23T10:06:47;4.85;;;3.70;;
21215;SDS011;10765;50.954;5.322;2022-07-23T10:09:17;5.32;;;4.28;;
21215;SDS011;10765;50.954;5.322;2022-07-23T10:11:52;6.18;;;4.18;;
21215;SDS011;10765;50.954;5.322;2022-07-23T10:14:27;5.07;;;4.30;;
21215;SDS011;10765;50.954;5.322;2022-07-23T10:16:57;4.10;;;3.80;;
21215;SDS011;10765;50.954;5.322;2022-07-23T10:19:24;3.83;;;3.40;;
21215;SDS011;10765;50.954;5.322;2022-07-23T10:21:52;3.60;;;3.30;;
21215;SDS011;10765;50.954;5.322;2022-07-23T10:24:28;5.70;;;4.40;;
21215;SDS011;10765;50.954;5.322;2022-07-23T10:27:09;5.05;;;3.28;;
21215;SDS011;10765;50.954;5.322;2022-07-23T10:29:50;3.45;;;3.15;;
21215;SDS011;10765;50.954;5.322;2022-07-23T10:32:25;3.92;;;3.45;;
21215;SDS011;10765;50.954;5.322;2022-07-23T10:35:03;4.75;;;3.38;;
21215;SDS011;10765;50.954;5.322;2022-07-23T10:37:38;3.95;;;2.90;;
21215;SDS011;10765;50.954;5.322;2022-07-23T10:40:09;3.97;;;3.10;;
21215;SDS011;10765;50.954;5.322;2022-07-23T10:42:37;3.38;;;2.90;;
21215;SDS011;10765;50.954;5.322;2022-07-23T10:47:48;4.35;;;2.55;;
21215;SDS011;10765;50.954;5.322;2022-07-23T10:50:20;2.88;;;2.63;;
21215;SDS011;10765;50.954;5.322;2022-07-23T10:55:45;3.60;;;3.30;;
21215;SDS011;10765;50.954;5.322;2022-07-23T10:58:18;4.03;;;2.85;;
21215;SDS011;10765;50.954;5.322;2022-07-23T11:00:46;4.30;;;3.17;;
21215;SDS011;10765;50.954;5.322;2022-07-23T11:03:33;4.68;;;2.67;;
21215;SDS011;10765;50.954;5.322;2022-07-23T11:06:03;2.60;;;2.40;;
21215;SDS011;10765;50.954;5.322;2022-07-23T11:08:31;3.70;;;2.60;;
21215;SDS011;10765;50.954;5.322;2022-07-23T11:11:09;2.50;;;2.28;;
21215;SDS011;10765;50.954;5.322;2022-07-23T11:13:41;2.30;;;1.77;;
21215;SDS011;10765;50.954;5.322;2022-07-23T11:16:14;2.22;;;1.58;;
21215;SDS011;10765;50.954;5.322;2022-07-23T11:18:59;1.52;;;1.40;;
21215;SDS011;10765;50.954;5.322;2022-07-23T11:21:43;2.70;;;1.60;;
21215;SDS011;10765;50.954;5.322;2022-07-23T11:24:12;2.78;;;1.60;;
21215;SDS011;10765;50.954;5.322;2022-07-23T11:26:45;2.30;;;1.80;;
21215;SDS011;10765;50.954;5.322;2022-07-23T11:29:37;1.90;;;1.80;;
21215;SDS011;10765;50.954;5.322;2022-07-23T11:32:08;3.05;;;1.67;;
21215;SDS011;10765;50.954;5.322;2022-07-23T11:34:45;1.63;;;1.52;;
21215;SDS011;10765;50.954;5.322;2022-07-23T11:37:26;1.52;;;1.40;;
21215;SDS011;10765;50.954;5.322;2022-07-23T11:39:55;3.25;;;1.58;;
21215;SDS011;10765;50.954;5.322;2022-07-23T11:42:24;2.65;;;1.50;;
21215;SDS011;10765;50.954;5.322;2022-07-23T11:44:51;1.52;;;1.42;;
21215;SDS011;10765;50.954;5.322;2022-07-23T11:47:21;1.63;;;1.40;;
21215;SDS011;10765;50.954;5.322;2022-07-23T11:49:51;1.60;;;1.50;;
21215;SDS011;10765;50.954;5.322;2022-07-23T11:52:19;1.60;;;1.50;;
21215;SDS011;10765;50.954;5.322;2022-07-23T11:54:48;1.83;;;1.30;;
21215;SDS011;10765;50.954;5.322;2022-07-23T11:57:16;2.10;;;1.50;;
21215;SDS011;10765;50.954;5.322;2022-07-23T11:59:45;1.98;;;1.35;;
21215;SDS011;10765;50.954;5.322;2022-07-23T12:02:13;2.90;;;1.60;;
21215;SDS011;10765;50.954;5.322;2022-07-23T12:04:40;2.28;;;1.27;;
21215;SDS011;10765;50.954;5.322;2022-07-23T12:07:30;1.70;;;1.60;;
21215;SDS011;10765;50.954;5.322;2022-07-23T12:09:59;1.52;;;1.35;;
21215;SDS011;10765;50.954;5.322;2022-07-23T12:12:34;1.60;;;1.30;;
21215;SDS011;10765;50.954;5.322;2022-07-23T12:15:04;2.97;;;1.25;;
21215;SDS011;10765;50.954;5.322;2022-07-23T12:17:33;36.63;;;34.28;;
21215;SDS011;10765;50.954;5.322;2022-07-23T12:20:02;3.05;;;2.50;;
21215;SDS011;10765;50.954;5.322;2022-07-23T12:22:33;1.75;;;1.40;;
21215;SDS011;10765;50.954;5.322;2022-07-23T12:25:03;1.77;;;1.45;;
21215;SDS011;10765;50.954;5.322;2022-07-23T12:27:31;2.10;;;1.90;;
21215;SDS011;10765;50.954;5.322;2022-07-23T12:32:56;1.90;;;1.80;;
21215;SDS011;10765;50.954;5.322;2022-07-23T12:35:29;2.28;;;1.52;;
21215;SDS011;10765;50.954;5.322;2022-07-23T12:37:59;2.92;;;1.90;;
21215;SDS011;10765;50.954;5.322;2022-07-23T12:40:28;3.28;;;1.58;;
21215;SDS011;10765;50.954;5.322;2022-07-23T12:42:58;1.83;;;1.70;;
21215;SDS011;10765;50.954;5.322;2022-07-23T12:45:28;2.72;;;1.88;;
21215;SDS011;10765;50.954;5.322;2022-07-23T12:48:15;2.55;;;1.95;;
21215;SDS011;10765;50.954;5.322;2022-07-23T12:50:44;2.00;;;1.80;;
21215;SDS011;10765;50.954;5.322;2022-07-23T12:53:17;17.17;;;16.13;;
21215;SDS011;10765;50.954;5.322;2022-07-23T12:55:46;3.42;;;2.28;;
21215;SDS011;10765;50.954;5.322;2022-07-23T12:58:15;2.17;;;1.98;;
21215;SDS011;10765;50.954;5.322;2022-07-23T13:00:52;2.17;;;2.00;;
21215;SDS011;10765;50.954;5.322;2022-07-23T13:03:21;2.33;;;2.13;;
21215;SDS011;10765;50.954;5.322;2022-07-23T13:05:49;2.10;;;1.70;;
21215;SDS011;10765;50.954;5.322;2022-07-23T13:08:16;3.00;;;2.05;;
21215;SDS011;10765;50.954;5.322;2022-07-23T13:10:42;3.08;;;2.88;;
21215;SDS011;10765;50.954;5.322;2022-07-23T13:13:11;3.72;;;3.53;;
21215;SDS011;10765;50.954;5.322;2022-07-23T13:15:38;4.07;;;3.70;;
21215;SDS011;10765;50.954;5.322;2022-07-23T13:18:07;2.10;;;2.00;;
21215;SDS011;10765;50.954;5.322;2022-07-23T13:20:34;1.92;;;1.83;;
21215;SDS011;10765;50.954;5.322;2022-07-23T13:23:01;2.15;;;2.00;;
21215;SDS011;10765;50.954;5.322;2022-07-23T13:25:28;2.33;;;2.13;;
21215;SDS011;10765;50.954;5.322;2022-07-23T13:27:55;2.10;;;1.88;;
21215;SDS011;10765;50.954;5.322;2022-07-23T13:30:22;2.17;;;1.98;;
21215;SDS011;10765;50.954;5.322;2022-07-23T13:32:49;2.58;;;2.30;;
21215;SDS011;10765;50.954;5.322;2022-07-23T13:35:17;9.48;;;8.77;;
21215;SDS011;10765;50.954;5.322;2022-07-23T13:37:44;8.77;;;8.27;;
21215;SDS011;10765;50.954;5.322;2022-07-23T13:40:11;5.03;;;3.95;;
21215;SDS011;10765;50.954;5.322;2022-07-23T13:42:38;2.08;;;1.95;;
21215;SDS011;10765;50.954;5.322;2022-07-23T13:45:06;2.80;;;2.50;;
21215;SDS011;10765;50.954;5.322;2022-07-23T13:47:33;2.97;;;2.67;;
21215;SDS011;10765;50.954;5.322;2022-07-23T13:50:00;4.55;;;2.63;;
21215;SDS011;10765;50.954;5.322;2022-07-23T13:52:29;2.47;;;2.27;;
21215;SDS011;10765;50.954;5.322;2022-07-23T13:54:58;2.60;;;2.40;;
21215;SDS011;10765;50.954;5.322;2022-07-23T13:57:25;2.70;;;2.10;;
21215;SDS011;10765;50.954;5.322;2022-07-23T13:59:52;2.30;;;2.10;;
21215;SDS011;10765;50.954;5.322;2022-07-23T14:02:19;2.77;;;2.57;;
21215;SDS011;10765;50.954;5.322;2022-07-23T14:04:46;2.70;;;2.50;;
21215;SDS011;10765;50.954;5.322;2022-07-23T14:07:12;2.50;;;2.30;;
21215;SDS011;10765;50.954;5.322;2022-07-23T14:09:41;2.50;;;2.30;;
21215;SDS011;10765;50.954;5.322;2022-07-23T14:12:08;2.30;;;2.10;;
21215;SDS011;10765;50.954;5.322;2022-07-23T14:14:35;4.07;;;2.37;;
21215;SDS011;10765;50.954;5.322;2022-07-23T14:17:03;2.92;;;2.40;;
21215;SDS011;10765;50.954;5.322;2022-07-23T14:19:31;2.63;;;2.43;;
21215;SDS011;10765;50.954;5.322;2022-07-23T14:21:58;2.53;;;2.30;;
21215;SDS011;10765;50.954;5.322;2022-07-23T14:24:25;3.87;;;2.67;;
21215;SDS011;10765;50.954;5.322;2022-07-23T14:26:53;3.23;;;2.50;;
21215;SDS011;10765;50.954;5.322;2022-07-23T14:29:21;2.70;;;2.30;;
21215;SDS011;10765;50.954;5.322;2022-07-23T14:31:48;4.88;;;2.60;;
21215;SDS011;10765;50.954;5.322;2022-07-23T14:34:15;5.10;;;2.70;;
21215;SDS011;10765;50.954;5.322;2022-07-23T14:36:42;3.00;;;2.30;;
21215;SDS011;10765;50.954;5.322;2022-07-23T14:39:09;3.80;;;2.47;;
21215;SDS011;10765;50.954;5.322;2022-07-23T14:41:37;4.00;;;2.50;;
21215;SDS011;10765;50.954;5.322;2022-07-23T14:44:05;3.47;;;2.57;;
21215;SDS011;10765;50.954;5.322;2022-07-23T14:46:32;3.13;;;2.37;;
21215;SDS011;10765;50.954;5.322;2022-07-23T14:48:59;2.53;;;2.33;;
21215;SDS011;10765;50.954;5.322;2022-07-23T14:51:26;3.13;;;2.20;;
21215;SDS011;10765;50.954;5.322;2022-07-23T14:53:53;2.67;;;2.47;;
21215;SDS011;10765;50.954;5.322;2022-07-23T14:56:20;2.70;;;2.27;;
21215;SDS011;10765;50.954;5.322;2022-07-23T14:58:47;2.77;;;2.30;;